Time;durP1;ratioP1;P1;durP2;ratioP2;P2;SDS_P1;SDS_P2;PMS_P1;PMS_P2;Temp;Humidity;BMP_temperature;BMP_pressure;BME280_temperature;BME280_humidity;BME280_pressure;Samples;Min_cycle;Max_cycle;Signal;HPM_P1;HPM_P2
2022/03/15 00:02:41;;;;;;;21.25;10.70;;;;;;;-17.68;50.46;97591.38;6399999;27;20035;-63
2022/03/15 00:05:42;;;;;;;24.63;10.13;;;;;;;-17.71;49.78;97596.22;6399057;27;20054;-64
2022/03/15 00:08:48;;;;;;;30.35;11.88;;;;;;;-17.78;49.47;97594.16;6399592;27;20041;-63
2022/03/15 00:11:53;;;;;;;36.75;16.58;;;;;;;-17.83;49.44;97594.69;6399622;27;20184;-64
2022/03/15 00:14:59;;;;;;;57.30;21.45;;;;;;;-17.93;49.64;97598.34;6399563;27;20042;-63
2022/03/15 00:18:03;;;;;;;55.85;22.42;;;;;;;-18.01;49.86;97602.06;6399176;27;20055;-64
2022/03/15 00:21:11;;;;;;;43.80;18.85;;;;;;;-17.97;50.42;97601.44;6398645;27;20068;-63
2022/03/15 00:24:12;;;;;;;64.40;25.27;;;;;;;-17.96;50.61;97608.22;6399173;27;20031;-63
2022/03/15 00:27:14;;;;;;;82.40;31.42;;;;;;;-17.93;50.31;97603.38;6398250;27;20049;-63
2022/03/15 00:30:15;;;;;;;68.53;26.70;;;;;;;-17.86;51.11;97610.47;6398529;27;20404;-63
2022/03/15 00:33:20;;;;;;;82.38;28.10;;;;;;;-17.78;50.59;97609.25;6398218;27;20092;-64
2022/03/15 00:36:21;;;;;;;75.30;30.65;;;;;;;-17.75;51.38;97599.34;6397905;27;20130;-64
2022/03/15 00:39:25;;;;;;;69.18;28.83;;;;;;;-17.75;51.31;97606.88;6397779;27;20061;-65
2022/03/15 00:42:29;;;;;;;77.30;29.67;;;;;;;-17.80;51.16;97614.97;6398354;27;20058;-64
2022/03/15 00:45:34;;;;;;;62.78;22.60;;;;;;;-17.88;51.02;97617.06;6398777;27;20042;-64
2022/03/15 00:48:37;;;;;;;51.03;20.20;;;;;;;-17.95;52.24;97615.84;6398921;27;20030;-63
2022/03/15 00:51:39;;;;;;;56.42;22.83;;;;;;;-17.96;51.98;97618.28;6397986;27;20087;-63
2022/03/15 00:54:40;;;;;;;57.90;21.00;;;;;;;-18.01;52.44;97614.63;6397905;27;20191;-63
2022/03/15 00:57:42;;;;;;;45.85;19.58;;;;;;;-18.03;51.96;97616.19;6397354;27;20419;-62
2022/03/15 01:00:48;;;;;;;53.17;22.25;;;;;;;-18.07;52.68;97610.13;6397286;27;20446;-64
2022/03/15 01:03:49;;;;;;;55.60;22.10;;;;;;;-18.01;53.26;97619.66;6397526;27;20393;-63
2022/03/15 01:06:50;;;;;;;53.03;20.05;;;;;;;-17.98;52.59;97624.84;6397067;27;20053;-64
2022/03/15 01:09:52;;;;;;;56.70;22.30;;;;;;;-18.03;52.19;97611.16;6396949;27;20050;-64
2022/03/15 01:12:54;;;;;;;54.35;20.67;;;;;;;-17.99;53.15;97625.66;6396759;27;20419;-63
2022/03/15 01:16:00;;;;;;;50.35;20.80;;;;;;;-18.00;52.37;97621.38;6398029;27;20039;-63
2022/03/15 01:19:07;;;;;;;52.10;19.10;;;;;;;-18.04;52.61;97622.84;6397560;27;20439;-64
2022/03/15 01:22:08;;;;;;;50.10;19.45;;;;;;;-18.06;51.81;97626.91;6397665;27;20388;-63
2022/03/15 01:25:10;;;;;;;54.60;19.92;;;;;;;-18.10;51.90;97629.19;6397578;27;20038;-63
2022/03/15 01:28:15;;;;;;;44.95;19.65;;;;;;;-18.08;51.79;97626.00;6397680;27;20121;-63
2022/03/15 01:31:16;;;;;;;42.58;19.90;;;;;;;-18.04;52.74;97629.53;6397608;27;20041;-63
2022/03/15 01:34:22;;;;;;;55.90;19.73;;;;;;;-18.03;52.75;97631.25;6397253;27;20047;-63
2022/03/15 01:37:24;;;;;;;44.95;18.88;;;;;;;-18.08;52.11;97633.53;6397476;27;20174;-63
2022/03/15 01:40:28;;;;;;;51.55;19.13;;;;;;;-18.16;51.89;97637.22;6397331;27;20046;-63
2022/03/15 01:43:33;;;;;;;54.70;15.90;;;;;;;-18.21;51.29;97641.97;6397326;27;20038;-63
2022/03/15 01:46:35;;;;;;;58.90;18.48;;;;;;;-18.28;50.73;97639.00;6397378;27;20042;-64
2022/03/15 01:49:36;;;;;;;63.97;19.27;;;;;;;-18.33;51.17;97646.28;6397436;27;20034;-63
2022/03/15 01:52:37;;;;;;;54.65;20.15;;;;;;;-18.31;51.85;97639.72;6397262;27;20045;-65
2022/03/15 01:55:39;;;;;;;57.80;19.63;;;;;;;-18.29;52.48;97643.16;6396804;27;20057;-63
2022/03/15 01:58:42;;;;;;;48.58;18.17;;;;;;;-18.22;52.07;97650.31;6396955;27;20499;-63
2022/03/15 02:01:46;;;;;;;49.58;18.48;;;;;;;-18.25;52.12;97644.25;6397192;27;20035;-63
2022/03/15 02:04:50;;;;;;;42.30;17.48;;;;;;;-18.29;51.47;97647.34;6397096;27;20058;-63
2022/03/15 02:07:52;;;;;;;50.45;20.45;;;;;;;-18.35;51.33;97648.69;6397013;27;20039;-63
2022/03/15 02:10:55;;;;;;;46.97;20.00;;;;;;;-18.41;52.03;97645.84;6396861;27;20026;-64
2022/03/15 02:13:59;;;;;;;45.13;19.35;;;;;;;-18.44;51.79;97648.16;6378019;27;20055;-63
2022/03/15 02:17:03;;;;;;;46.05;17.98;;;;;;;-18.44;51.91;97659.84;6378053;27;20073;-64
2022/03/15 02:20:08;;;;;;;48.83;20.92;;;;;;;-18.45;51.72;97655.59;6396704;27;20041;-67
2022/03/15 02:23:12;;;;;;;55.30;22.08;;;;;;;-18.45;51.40;97665.63;6400109;27;20035;-63
2022/03/15 02:26:16;;;;;;;51.33;16.02;;;;;;;-18.45;51.21;97660.63;6400503;27;20058;-63
2022/03/15 02:29:19;;;;;;;41.35;17.52;;;;;;;-18.43;51.43;97669.13;6402015;27;20110;-64
2022/03/15 02:32:23;;;;;;;49.78;19.83;;;;;;;-18.42;51.98;97673.38;6401790;27;20035;-64
2022/03/15 02:35:30;;;;;;;62.47;23.73;;;;;;;-18.34;51.81;97674.69;6401743;27;20488;-64
2022/03/15 02:38:32;;;;;;;49.70;22.50;;;;;;;-18.23;51.90;97683.72;6400810;27;20150;-64
2022/03/15 02:41:35;;;;;;;;;;;;;;;-18.08;51.40;97677.84;6401861;27;20078;-65
2022/03/15 02:44:39;;;;;;;29.13;14.93;;;;;;;-17.98;50.68;97677.63;6401290;27;19915;-64
2022/03/15 02:47:47;;;;;;;55.42;28.90;;;;;;;-17.89;50.22;97670.59;6400653;27;20155;-64
2022/03/15 02:50:49;;;;;;;39.25;21.67;;;;;;;-17.77;49.89;97675.47;6401238;27;20045;-63
2022/03/15 02:53:54;;;;;;;51.38;21.92;;;;;;;-17.77;50.44;97662.91;6401312;27;20047;-64
2022/03/15 02:56:58;;;;;;;57.28;24.27;;;;;;;-17.57;50.85;97689.16;6383322;27;20054;-64
2022/03/15 03:00:03;;;;;;;35.72;16.45;;;;;;;-17.40;49.79;97683.44;6400972;27;20038;-64
2022/03/15 03:03:10;;;;;;;56.83;23.75;;;;;;;-17.22;49.62;97678.56;6382150;27;20058;-63
2022/03/15 03:06:11;;;;;;;51.63;19.20;;;;;;;-17.11;49.68;97676.63;6400757;27;20058;-64
2022/03/15 03:09:17;;;;;;;;;;;;;;;-16.88;51.20;97691.31;6401103;27;20042;-63
2022/03/15 03:12:21;;;;;;;39.90;20.63;;;;;;;-16.77;49.21;97691.91;6400842;27;19922;-63
2022/03/15 03:15:26;;;;;;;46.05;21.00;;;;;;;-16.54;49.62;97696.47;6400302;27;20038;-64
2022/03/15 03:18:32;;;;;;;48.13;20.48;;;;;;;-16.34;49.45;97692.47;6400223;27;20034;-64
2022/03/15 03:21:36;;;;;;;56.20;24.02;;;;;;;-16.19;49.51;97701.63;6400609;27;20043;-63
2022/03/15 03:24:37;;;;;;;58.28;23.27;;;;;;;-16.15;49.48;97699.34;6381511;27;20427;-63
2022/03/15 03:27:43;;;;;;;41.80;18.33;;;;;;;-16.04;49.04;97702.44;6400504;27;20125;-62
2022/03/15 03:30:46;;;;;;;;;;;;;;;-15.86;49.95;97712.59;6399745;27;20069;-63
2022/03/15 03:33:48;;;;;;;48.15;17.65;;;;;;;-15.69;48.80;97710.91;6398505;27;20067;-65
2022/03/15 03:36:49;;;;;;;46.55;18.45;;;;;;;-15.57;48.23;97716.53;6400400;27;20520;-65
2022/03/15 03:39:53;;;;;;;54.22;20.80;;;;;;;-15.43;48.27;97715.53;6399952;27;20038;-64
2022/03/15 03:42:59;;;;;;;64.22;22.35;;;;;;;-15.26;48.47;97713.00;6400069;27;20527;-64
2022/03/15 03:46:01;;;;;;;53.95;21.27;;;;;;;-15.00;48.18;97721.81;6398915;27;20530;-64
2022/03/15 03:49:04;;;;;;;61.10;22.33;;;;;;;-14.74;47.75;97728.13;6400069;27;20031;-63
2022/03/15 03:52:07;;;;;;;57.33;23.20;;;;;;;-14.63;47.57;97724.44;6399885;27;20415;-64
2022/03/15 03:55:13;;;;;;;71.88;24.98;;;;;;;-14.55;47.35;97732.34;6399915;27;20042;-63
2022/03/15 03:58:14;;;;;;;69.50;26.63;;;;;;;-14.49;47.84;97733.47;6399557;27;20045;-63
2022/03/15 04:01:16;;;;;;;58.40;24.25;;;;;;;-14.36;47.95;97734.03;6399393;27;20407;-65
2022/03/15 04:04:17;;;;;;;69.70;30.73;;;;;;;-14.27;47.82;97734.44;6398957;27;20384;-64
2022/03/15 04:07:19;;;;;;;72.07;28.50;;;;;;;-14.17;48.19;97730.69;6373343;27;20046;-63
2022/03/15 04:10:23;;;;;;;70.85;28.63;;;;;;;-13.91;48.02;97745.34;6373830;27;20043;-64
2022/03/15 04:13:30;;;;;;;74.40;29.17;;;;;;;-13.73;47.54;97747.78;6373719;27;20038;-63
2022/03/15 04:16:32;;;;;;;71.18;30.20;;;;;;;-13.42;47.34;97741.53;6373641;27;20039;-64
2022/03/15 04:19:41;;;;;;;61.25;25.70;;;;;;;-13.19;47.23;97750.94;6373617;27;20053;-64
2022/03/15 04:22:47;;;;;;;56.83;25.13;;;;;;;-13.00;47.27;97761.81;6373597;27;20535;-63
2022/03/15 04:25:52;;;;;;;43.40;20.50;;;;;;;-12.78;46.19;97766.94;6372634;27;20054;-63
2022/03/15 04:28:56;;;;;;;48.85;20.38;;;;;;;-12.51;46.26;97776.44;6372741;27;20183;-64
2022/03/15 04:32:00;;;;;;;52.60;20.13;;;;;;;-12.23;45.91;97771.66;6372290;27;20050;-64
2022/03/15 04:35:02;;;;;;;41.83;20.15;;;;;;;-12.06;45.77;97773.94;6373158;27;20500;-64
2022/03/15 04:38:13;;;;;;;44.40;19.85;;;;;;;-11.89;45.61;97772.88;6373263;27;20125;-63
2022/03/15 04:41:17;;;;;;;49.85;19.90;;;;;;;-11.73;45.29;97781.06;6373115;27;20527;-64
2022/03/15 04:44:19;;;;;;;57.97;26.17;;;;;;;-11.59;45.43;97780.75;6372459;27;20054;-64
2022/03/15 04:47:26;;;;;;;49.72;23.90;;;;;;;-11.41;45.18;97785.59;6372196;27;20489;-64
2022/03/15 04:50:30;;;;;;;52.05;19.58;;;;;;;-11.07;44.37;97784.22;6373026;27;20047;-64
2022/03/15 04:53:35;;;;;;;55.15;21.75;;;;;;;-10.75;44.25;97779.38;6372020;27;20536;-63
2022/03/15 04:56:43;;;;;;;41.13;16.95;;;;;;;-10.50;43.66;97787.00;6372744;27;20039;-64
2022/03/15 04:59:44;;;;;;;40.45;17.27;;;;;;;-10.26;43.57;97789.41;6372585;27;20043;-63
2022/03/15 05:02:48;;;;;;;47.65;17.42;;;;;;;-10.16;43.54;97790.56;6372767;27;20041;-63
2022/03/15 05:05:50;;;;;;;42.20;20.13;;;;;;;-10.12;43.57;97796.59;6384992;27;20465;-63
2022/03/15 05:08:54;;;;;;;36.20;16.67;;;;;;;-9.97;43.69;97803.00;6398283;27;20051;-63
2022/03/15 05:11:55;;;;;;;35.13;15.95;;;;;;;-9.91;43.44;97788.72;6397134;27;20385;-63
2022/03/15 05:15:02;;;;;;;52.47;22.23;;;;;;;-9.67;43.18;97811.53;6397660;27;20052;-63
2022/03/15 05:18:10;;;;;;;58.78;24.35;;;;;;;-9.32;42.85;97815.06;6398089;27;20045;-63
2022/03/15 05:21:16;;;;;;;67.95;28.73;;;;;;;-8.69;42.12;97815.09;6398052;27;20044;-64
2022/03/15 05:24:18;;;;;;;77.85;32.70;;;;;;;-7.89;40.52;97822.06;6396760;27;20405;-64
2022/03/15 05:27:26;;;;;;;83.90;36.33;;;;;;;-6.94;38.97;97818.91;6397649;27;20038;-64
2022/03/15 05:30:32;;;;;;;91.43;39.75;;;;;;;-5.93;37.75;97833.44;6397665;27;20046;-63
2022/03/15 05:33:36;;;;;;;78.72;34.40;;;;;;;-4.83;36.81;97830.63;6396808;27;20488;-64
2022/03/15 05:36:43;;;;;;;84.22;37.10;;;;;;;-3.69;35.23;97832.47;6397084;27;20046;-63
2022/03/15 05:39:44;;;;;;;;;;;;;;;-2.49;33.92;97833.88;6396572;27;20203;-64
2022/03/15 05:42:46;;;;;;;88.18;39.17;;;;;;;-1.75;33.10;97844.25;6396982;27;20007;-64
2022/03/15 05:45:50;;;;;;;80.88;35.15;;;;;;;-1.38;32.33;97842.50;6396540;27;20051;-64
2022/03/15 05:48:52;;;;;;;69.15;29.05;;;;;;;-0.13;31.07;97847.97;6396542;27;20054;-63
2022/03/15 05:52:01;;;;;;;68.07;32.40;;;;;;;1.23;28.79;97833.72;6397031;27;20043;-64
2022/03/15 05:55:10;;;;;;;71.10;33.95;;;;;;;2.87;27.36;97851.09;6397413;27;20072;-63
2022/03/15 05:58:15;;;;;;;85.45;40.28;;;;;;;4.61;25.00;97843.78;6395532;27;20110;-63
2022/03/15 06:01:19;;;;;;;81.55;38.65;;;;;;;5.54;24.26;97849.94;6396179;27;20073;-63
2022/03/15 06:04:24;;;;;;;79.25;40.00;;;;;;;6.56;23.28;97839.84;6396579;27;20054;-64
2022/03/15 06:07:28;;;;;;;73.20;39.70;;;;;;;8.06;21.60;97850.97;6396690;27;20100;-64
2022/03/15 06:10:34;;;;;;;78.32;40.83;;;;;;;9.62;19.62;97847.94;6396284;27;20091;-64
2022/03/15 06:13:35;;;;;;;75.28;42.63;;;;;;;11.07;18.23;97868.19;6395721;27;20047;-64
2022/03/15 06:16:42;;;;;;;80.32;42.40;;;;;;;12.40;16.35;97863.72;6396154;27;20057;-63
2022/03/15 06:19:43;;;;;;;76.47;43.78;;;;;;;13.88;16.17;97861.13;6396043;27;20061;-63
2022/03/15 06:22:48;;;;;;;71.40;40.40;;;;;;;14.74;15.05;97860.94;6396594;27;20079;-63
2022/03/15 06:25:52;;;;;;;84.03;43.92;;;;;;;14.88;14.43;97855.56;6396697;27;20457;-64
2022/03/15 06:28:53;;;;;;;76.45;42.22;;;;;;;16.04;13.39;97854.69;6396515;27;20039;-64
2022/03/15 06:31:55;;;;;;;76.15;42.03;;;;;;;17.50;12.64;97858.03;6395671;27;20046;-64
2022/03/15 06:34:59;;;;;;;74.00;40.42;;;;;;;19.03;11.73;97860.03;6396481;27;20049;-63
2022/03/15 06:38:03;;;;;;;62.80;39.65;;;;;;;20.04;11.14;97859.41;6396270;27;20459;-63
2022/03/15 06:41:12;;;;;;;63.75;37.55;;;;;;;19.44;9.86;97855.69;6395975;27;20479;-64
2022/03/15 06:44:16;;;;;;;64.72;35.88;;;;;;;18.49;11.20;97861.78;6395736;27;20142;-64
2022/03/15 06:47:20;;;;;;;60.53;32.97;;;;;;;18.11;10.66;97847.03;6395371;27;20416;-64
2022/03/15 06:50:21;;;;;;;;;;;;;;;20.12;12.24;97864.06;6396416;27;20031;-64
2022/03/15 06:53:22;;;;;;;39.60;25.40;;;;;;;20.29;10.49;97866.09;6395186;27;20375;-63
2022/03/15 06:56:26;;;;;;;40.95;24.63;;;;;;;20.94;9.58;97866.50;6395337;27;20196;-63
2022/03/15 06:59:28;;;;;;;38.13;21.35;;;;;;;21.30;9.62;97872.16;6396299;27;20035;-64
2022/03/15 07:02:36;;;;;;;36.65;21.88;;;;;;;21.51;8.88;97875.53;6396343;27;20055;-63
2022/03/15 07:05:40;;;;;;;38.10;21.05;;;;;;;21.28;8.92;97874.13;6395860;27;20059;-63
2022/03/15 07:08:42;;;;;;;39.17;22.00;;;;;;;21.19;8.53;97880.31;6396556;27;20393;-64
2022/03/15 07:11:49;;;;;;;37.08;19.48;;;;;;;21.69;8.24;97866.75;6400949;27;20046;-63
2022/03/15 07:15:00;;;;;;;35.58;19.52;;;;;;;22.17;8.03;97889.88;6401005;27;20034;-64
2022/03/15 07:18:02;;;;;;;31.98;17.52;;;;;;;22.94;7.54;97887.75;6399714;27;20423;-63
2022/03/15 07:21:03;;;;;;;30.80;18.55;;;;;;;23.31;7.39;97890.31;6400071;27;20405;-63
2022/03/15 07:24:09;;;;;;;27.23;17.27;;;;;;;23.62;7.24;97895.25;6398894;27;20049;-64
2022/03/15 07:27:11;;;;;;;22.33;14.40;;;;;;;24.38;6.82;97891.88;6400195;27;20038;-63
2022/03/15 07:30:17;;;;;;;19.73;13.13;;;;;;;24.24;6.60;97900.56;6400516;27;20043;-64
2022/03/15 07:33:28;;;;;;;15.48;10.35;;;;;;;23.88;6.38;97898.00;6400553;27;20091;-64
2022/03/15 07:36:37;;;;;;;18.13;10.95;;;;;;;22.87;6.53;97892.88;6400711;27;20049;-63
2022/03/15 07:39:45;;;;;;;17.10;10.85;;;;;;;22.76;6.53;97893.97;6400037;27;20042;-63
2022/03/15 07:42:55;;;;;;;25.63;15.13;;;;;;;23.49;6.69;97901.03;6400101;27;20046;-64
2022/03/15 07:45:59;;;;;;;24.45;16.13;;;;;;;23.67;6.57;97888.41;6398993;27;20427;-64
2022/03/15 07:49:00;;;;;;;27.67;18.08;;;;;;;23.43;6.73;97897.13;6399141;27;20051;-64
2022/03/15 07:52:07;;;;;;;30.00;17.23;;;;;;;22.86;7.12;97900.09;6400359;27;20031;-64
2022/03/15 07:55:10;;;;;;;29.13;16.83;;;;;;;22.39;7.03;97897.56;6399858;27;20496;-64
2022/03/15 07:58:17;;;;;;;30.08;17.45;;;;;;;23.35;6.79;97904.28;6399540;27;20042;-63
2022/03/15 08:01:26;;;;;;;33.63;18.10;;;;;;;24.31;6.06;97898.88;6399939;27;20042;-64
2022/03/15 08:04:31;;;;;;;26.92;16.23;;;;;;;25.61;5.56;97908.31;6399612;27;20038;-64
2022/03/15 08:07:36;;;;;;;28.40;17.13;;;;;;;26.71;5.23;97912.13;6399730;27;20453;-64
2022/03/15 08:10:39;;;;;;;30.92;17.77;;;;;;;27.56;5.23;97905.00;6398750;27;20055;-64
2022/03/15 08:13:42;;;;;;;26.73;16.77;;;;;;;27.73;5.17;97910.09;6399610;27;20039;-63
2022/03/15 08:16:46;;;;;;;26.20;15.82;;;;;;;27.99;4.76;97900.72;6398296;27;20049;-63
2022/03/15 08:19:48;;;;;;;28.60;16.23;;;;;;;28.38;4.84;97907.75;6397910;27;20050;-63
2022/03/15 08:22:53;;;;;;;17.35;11.15;;;;;;;28.76;4.91;97915.75;6398775;27;20392;-64
2022/03/15 08:26:00;;;;;;;12.30;7.82;;;;;;;28.54;4.53;97910.31;6397939;27;20053;-63
2022/03/15 08:29:07;;;;;;;15.55;10.25;;;;;;;28.24;4.60;97911.31;6398876;27;20070;-63
2022/03/15 08:32:09;;;;;;;19.65;12.80;;;;;;;28.36;4.67;97920.63;6397982;27;20038;-64
2022/03/15 08:35:10;;;;;;;19.55;11.70;;;;;;;28.23;4.69;97923.16;6398012;27;20401;-63
2022/03/15 08:38:16;;;;;;;20.73;10.00;;;;;;;28.20;4.61;97922.50;6399211;27;20043;-64
2022/03/15 08:41:21;;;;;;;24.13;14.55;;;;;;;28.69;4.81;97931.09;6397575;27;20054;-64
2022/03/15 08:44:25;;;;;;;32.60;17.52;;;;;;;28.64;4.66;97918.97;6399359;27;20175;-64
2022/03/15 08:47:28;;;;;;;23.85;12.85;;;;;;;27.46;5.02;97924.16;6399612;27;20068;-64
2022/03/15 08:50:30;;;;;;;24.52;11.20;;;;;;;26.77;5.07;97919.50;6398110;27;20094;-64
2022/03/15 08:53:35;;;;;;;28.60;9.33;;;;;;;27.23;4.90;97918.75;6397420;27;20389;-64
2022/03/15 08:56:41;;;;;;;32.50;9.13;;;;;;;27.54;5.16;97916.84;6397369;27;20050;-64
2022/03/15 08:59:45;;;;;;;25.65;10.27;;;;;;;27.61;5.10;97913.41;6379262;27;20051;-64
2022/03/15 09:02:51;;;;;;;23.80;8.60;;;;;;;27.36;5.13;97923.59;6396939;27;20046;-64
2022/03/15 09:05:55;;;;;;;41.35;11.02;;;;;;;27.04;5.03;97918.19;6397894;27;20050;-64
2022/03/15 09:09:01;;;;;;;35.30;9.95;;;;;;;26.75;4.94;97921.56;6397683;27;20042;-64
2022/03/15 09:12:05;;;;;;;25.92;7.38;;;;;;;25.91;5.17;97931.06;6397690;27;20047;-64
2022/03/15 09:15:07;;;;;;;36.70;9.88;;;;;;;25.06;5.79;97918.69;6397211;27;20098;-63
2022/03/15 09:18:17;;;;;;;29.02;8.18;;;;;;;24.54;5.94;97921.56;6398028;27;20052;-64
2022/03/15 09:21:21;;;;;;;24.42;7.32;;;;;;;23.62;6.11;97914.91;6397724;27;20037;-64
2022/03/15 09:24:25;;;;;;;23.33;6.68;;;;;;;23.32;6.11;97918.84;6397059;27;20049;-63
2022/03/15 09:27:35;;;;;;;21.15;6.95;;;;;;;23.20;6.60;97928.97;6397695;27;20047;-63
2022/03/15 09:30:39;;;;;;;31.30;8.20;;;;;;;22.40;6.58;97920.69;6396395;27;20061;-65
2022/03/15 09:33:46;;;;;;;24.10;10.73;;;;;;;22.17;6.78;97924.72;6396623;27;20050;-64
2022/03/15 09:36:50;;;;;;;25.58;7.03;;;;;;;21.26;7.16;97918.94;6396367;27;20051;-64
2022/03/15 09:39:52;;;;;;;18.33;6.43;;;;;;;20.97;7.45;97927.78;6396002;27;20061;-64
2022/03/15 09:43:02;;;;;;;25.85;7.07;;;;;;;20.66;7.55;97936.88;6397244;27;20047;-63
2022/03/15 09:46:09;;;;;;;33.67;7.47;;;;;;;20.23;7.93;97937.94;6396201;27;20042;-63
2022/03/15 09:49:10;;;;;;;22.45;6.53;;;;;;;19.71;8.05;97936.13;6396434;27;20511;-64
2022/03/15 09:52:15;;;;;;;24.73;7.10;;;;;;;19.11;8.18;97947.41;6395965;27;20054;-64
2022/03/15 09:55:19;;;;;;;20.27;6.13;;;;;;;18.18;8.70;97938.00;6396072;27;20057;-64
2022/03/15 09:58:23;;;;;;;21.35;6.05;;;;;;;17.79;9.07;97942.78;6396822;27;20046;-64
2022/03/15 10:01:27;;;;;;;16.98;5.57;;;;;;;17.39;9.26;97948.47;6395404;27;20046;-64
2022/03/15 10:04:29;;;;;;;17.77;9.25;;;;;;;16.06;9.78;97948.34;6395732;27;20046;-64
2022/03/15 10:07:34;;;;;;;18.92;8.10;;;;;;;15.28;10.08;97945.69;6396796;27;20495;-64
2022/03/15 10:10:38;;;;;;;20.50;7.72;;;;;;;14.14;10.93;97949.47;6396982;27;20043;-63
2022/03/15 10:13:41;;;;;;;23.30;8.23;;;;;;;12.92;11.60;97942.59;6395958;27;20043;-63
2022/03/15 10:16:43;;;;;;;26.00;8.90;;;;;;;12.43;12.27;97945.38;6395760;27;20047;-64
2022/03/15 10:19:56;;;;;;;30.75;9.10;;;;;;;13.63;11.62;97949.91;6396314;27;20422;-64
2022/03/15 10:23:03;;;;;;;25.33;12.57;;;;;;;13.50;11.71;97948.09;6396723;27;20064;-63
2022/03/15 10:26:08;;;;;;;30.48;10.82;;;;;;;12.63;12.50;97943.41;6395646;27;20069;-65
2022/03/15 10:29:13;;;;;;;25.50;9.43;;;;;;;12.07;12.71;97949.06;6395064;27;20054;-64
2022/03/15 10:32:15;;;;;;;27.00;8.50;;;;;;;11.80;13.04;97953.97;6395575;27;20074;-64
2022/03/15 10:35:25;;;;;;;23.17;8.02;;;;;;;11.90;12.99;97906.91;6396513;27;20039;-64
2022/03/15 10:38:31;;;;;;;23.08;8.02;;;;;;;12.58;12.64;97947.16;6395601;27;20055;-64
2022/03/15 10:41:50;;;;;;;23.85;7.85;;;;;;;12.81;12.68;97950.28;6396276;27;20543;-63
2022/03/15 10:44:56;;;;;;;25.85;11.57;;;;;;;12.04;13.09;97961.56;6400186;27;20070;-64
2022/03/15 10:48:01;;;;;;;40.30;16.20;;;;;;;11.81;13.09;97939.88;6400373;27;20609;-64
2022/03/15 10:51:10;;;;;;;30.67;10.52;;;;;;;12.30;12.55;97957.53;6401183;27;20529;-64
2022/03/15 10:54:18;;;;;;;24.98;10.25;;;;;;;12.81;12.45;97955.56;6401574;27;20038;-64
2022/03/15 10:57:19;;;;;;;29.88;9.65;;;;;;;12.30;12.49;97946.97;6400198;27;20188;-65
2022/03/15 11:00:29;;;;;;;24.83;8.30;;;;;;;11.56;13.29;97965.81;6401514;27;20047;-63
2022/03/15 11:03:30;;;;;;;24.02;8.80;;;;;;;11.21;13.37;97956.13;6400067;27;20069;-64
2022/03/15 11:06:45;;;;;;;29.48;13.52;;;;;;;11.99;13.32;97967.09;6401307;27;20521;-63
2022/03/15 11:09:57;;;;;;;27.92;14.32;;;;;;;12.69;12.72;97958.91;6400946;27;20034;-64
2022/03/15 11:13:11;;;;;;;32.53;13.60;;;;;;;13.10;12.75;97967.09;6400769;27;20043;-64
2022/03/15 11:16:18;;;;;;;23.50;8.95;;;;;;;12.64;12.65;97982.06;6399619;27;20050;-64
2022/03/15 11:19:23;;;;;;;21.00;8.77;;;;;;;11.36;13.47;97974.75;6400304;27;20049;-64
2022/03/15 11:22:30;;;;;;;21.50;7.25;;;;;;;10.16;14.08;97985.69;6400643;27;20511;-64
2022/03/15 11:25:42;;;;;;;16.70;6.93;;;;;;;9.56;15.20;97979.59;6398953;27;20053;-64
2022/03/15 11:28:47;;;;;;;15.38;6.30;;;;;;;9.29;14.97;97985.09;6399252;27;20053;-64
2022/03/15 11:31:49;;;;;;;19.38;6.32;;;;;;;7.95;15.74;97984.19;6381400;27;20415;-63
2022/03/15 11:34:53;;;;;;;13.77;5.63;;;;;;;6.66;16.76;97987.72;6399644;27;20046;-64
2022/03/15 11:38:00;;;;;;;20.02;6.15;;;;;;;5.96;17.50;97988.06;6400422;27;20038;-64
2022/03/15 11:41:03;;;;;;;17.27;6.30;;;;;;;5.58;17.93;97996.03;6400162;27;20034;-64
2022/03/15 11:44:25;;;;;;;20.77;6.38;;;;;;;5.23;18.02;97996.94;6399186;27;20050;-65
2022/03/15 11:47:44;;;;;;;17.73;6.82;;;;;;;5.02;18.90;98000.09;6399206;27;20047;-64
2022/03/15 11:51:08;;;;;;;23.08;7.05;;;;;;;4.84;18.67;98002.28;6399956;27;20043;-64
2022/03/15 11:54:23;;;;;;;16.42;6.85;;;;;;;4.88;18.82;98003.03;6380221;27;20153;-64
2022/03/15 11:57:32;;;;;;;20.08;7.40;;;;;;;4.45;18.87;98004.03;6400076;27;20049;-64
2022/03/15 12:00:42;;;;;;;23.08;8.10;;;;;;;4.13;19.52;98008.19;6400048;27;20035;-64
2022/03/15 12:03:54;;;;;;;23.85;7.63;;;;;;;3.85;19.62;98015.72;6363849;27;20411;-64
2022/03/15 12:06:59;;;;;;;22.90;6.60;;;;;;;3.02;20.80;98004.19;6398528;27;20080;-64
2022/03/15 12:10:09;;;;;;;19.67;6.70;;;;;;;2.98;20.47;98012.94;6399685;27;20511;-64
2022/03/15 12:13:15;;;;;;;19.17;6.63;;;;;;;2.99;20.50;97999.06;6399467;27;20038;-63
2022/03/15 12:16:32;;;;;;;18.98;5.53;;;;;;;2.98;20.12;98012.94;6399372;27;20043;-65
2022/03/15 12:19:47;;;;;;;20.50;6.97;;;;;;;2.47;20.93;98015.47;6379960;27;20522;-65
2022/03/15 12:22:59;;;;;;;22.73;6.57;;;;;;;2.38;21.70;98016.44;6398391;27;20508;-65
2022/03/15 12:26:01;;;;;;;23.83;7.85;;;;;;;2.27;21.77;98017.47;6398383;27;20133;-65
2022/03/15 12:29:13;;;;;;;22.15;7.03;;;;;;;2.20;21.62;98022.72;6398915;27;20038;-64
2022/03/15 12:32:20;;;;;;;21.58;6.32;;;;;;;1.88;22.22;98015.34;6397915;27;20054;-64
2022/03/15 12:35:28;;;;;;;12.25;5.40;;;;;;;1.64;22.99;98020.81;6398805;27;20055;-65
2022/03/15 12:38:39;;;;;;;14.75;5.75;;;;;;;1.46;23.22;98027.06;6398040;27;20051;-65
2022/03/15 12:41:44;;;;;;;16.63;6.25;;;;;;;1.01;23.77;98013.66;6398657;27;20128;-65
2022/03/15 12:44:50;;;;;;;15.02;6.70;;;;;;;0.62;24.28;98026.03;6398989;27;20069;-65
2022/03/15 12:48:04;;;;;;;20.17;7.57;;;;;;;0.31;24.58;98034.03;6399181;27;20519;-64
2022/03/15 12:51:17;;;;;;;14.30;6.88;;;;;;;-0.20;24.82;98029.94;6397388;27;20058;-65
2022/03/15 12:54:28;;;;;;;20.08;9.10;;;;;;;-0.68;26.11;98040.38;6379599;27;20053;-65
2022/03/15 12:57:30;;;;;;;18.08;8.27;;;;;;;-1.10;26.47;98043.84;6397153;27;20050;-64
2022/03/15 13:00:36;;;;;;;22.23;9.70;;;;;;;-1.40;26.78;98043.00;6397748;27;20042;-65
2022/03/15 13:03:44;;;;;;;21.77;10.68;;;;;;;-1.64;27.49;98039.53;6398197;27;20038;-66
2022/03/15 13:06:51;;;;;;;23.98;10.05;;;;;;;-1.87;27.29;98042.03;6396861;27;20086;-63
2022/03/15 13:10:00;;;;;;;19.38;10.07;;;;;;;-2.01;28.24;98059.16;6397089;27;20526;-64
2022/03/15 13:13:03;;;;;;;22.67;10.02;;;;;;;-2.28;28.41;98045.31;6397086;27;20046;-63
2022/03/15 13:16:08;;;;;;;23.55;10.80;;;;;;;-2.62;28.73;98043.41;6398072;27;20035;-64
2022/03/15 13:19:25;;;;;;;27.73;11.40;;;;;;;-2.95;28.96;98056.06;6380109;27;20039;-64
2022/03/15 13:22:32;;;;;;;19.02;9.68;;;;;;;-3.47;29.37;98050.47;6398023;27;20043;-66
2022/03/15 13:25:38;;;;;;;24.45;8.48;;;;;;;-3.98;30.63;98056.81;6397789;27;20038;-64
2022/03/15 13:28:51;;;;;;;19.20;8.45;;;;;;;-4.55;31.27;98058.66;6395817;27;20050;-64
2022/03/15 13:31:56;;;;;;;19.75;8.52;;;;;;;-5.05;31.40;98066.47;6397455;27;20039;-65
2022/03/15 13:35:00;;;;;;;21.25;7.68;;;;;;;-5.51;31.91;98060.59;6378451;27;20046;-64
2022/03/15 13:38:14;;;;;;;30.67;8.90;;;;;;;-5.94;33.50;98072.66;6379218;27;20432;-64
2022/03/15 13:41:32;;;;;;;23.50;8.98;;;;;;;-6.35;34.44;98082.91;6397060;27;20051;-65
2022/03/15 13:44:39;;;;;;;19.10;8.73;;;;;;;-6.65;34.37;98088.25;6397154;27;20141;-64
2022/03/15 13:47:53;;;;;;;29.13;10.55;;;;;;;-6.89;35.27;98088.56;6396223;27;20069;-64
2022/03/15 13:51:10;;;;;;;42.78;14.02;;;;;;;-7.17;35.68;98092.16;6396243;27;20051;-65
2022/03/15 13:54:17;;;;;;;28.38;11.80;;;;;;;-7.35;37.01;98097.69;6396936;27;20483;-65
2022/03/15 13:57:26;;;;;;;25.98;11.05;;;;;;;-7.42;36.59;98094.91;6395682;27;20051;-64
2022/03/15 14:00:30;;;;;;;26.50;11.40;;;;;;;-7.49;36.57;98099.03;6378707;27;20042;-64
2022/03/15 14:03:36;;;;;;;25.75;10.52;;;;;;;-7.63;36.95;98085.03;6396326;27;20038;-64
2022/03/15 14:06:44;;;;;;;22.33;11.27;;;;;;;-7.70;37.40;98102.75;6396995;27;20051;-64
2022/03/15 14:09:45;;;;;;;39.80;16.67;;;;;;;-7.91;37.34;98099.63;6396053;27;20054;-67
2022/03/15 14:12:55;;;;;;;34.33;15.15;;;;;;;-8.10;38.52;98107.59;6396713;27;20133;-64
2022/03/15 14:16:11;;;;;;;31.92;13.45;;;;;;;-8.12;38.94;98115.22;6396721;27;20043;-65
2022/03/15 14:19:14;;;;;;;34.95;14.95;;;;;;;-8.17;38.30;98127.84;6395861;27;20046;-64